ENGM/OSL METAR and TAF weather

Enter ICAO airport designator
Station Type Date Time Source
ENGM METAR 2018/10/21 06:20 UTC NOAA

ENGM 210620Z 20003KT 9999 FEW009 SCT120 05/04 Q1015 NOSIG


Station Type Date Time Source
ENGM Decoded METAR 2018/10/21 06:20 UTC NOAA

Oslo / Gardermoen, Norway (ENGM) 60-12N 011-05E 204M
Oct 21, 2018 - 02:20 AM EDT / 2018.10.21 0620 UTC
Wind: from the SSW (200 degrees) at 3 MPH (3 KT):0
Visibility: greater than 7 mile(s):0
Sky conditions: partly cloudy
Temperature: 41 F (5 C)
Dew Point: 39 F (4 C)
Relative Humidity: 93%
Pressure (altimeter): 29.97 in. Hg (1015 hPa)
ob: ENGM 210620Z 20003KT 9999 FEW009 SCT120 05/04 Q1015 NOSIG
cycle: 6

Station Type Date Time Source
ENGM TAF 2018/10/21 06:42 UTC NOAA

TAF ENGM 210500Z 2106/2206 19008KT 9999 FEW008 SCT100
TEMPO 2106/2119 BKN009
TEMPO 2118/2120 21015G30KT


Example: see airport list